Startpagina
METAR-TAF:

METAR-TAF

Vliegvelden :

Djedda, Saoedi-Arabië

breedte: 21-42N, lengte: 039-11E, hoogte: 15 m

Actueel weer

Dit bericht is 38 minuten geleden gemaakt, om 12:00 UTC
Wind 10 kt uit het noordoosten
Temperatuur 28°C
Vochtigheid 55%
Druk 1012 hPa
Zicht 10 km of meer
Weinig wolken op 3000 ft

METAR: OEJN 271200Z 05010KT 9999 FEW030 28/18 Q1012 NOSIG

Tijdstip: 15:38 (12:38 UTC)

Verwachting

Dit bericht is 1 uur en het 38 minuten geleden gemaakt, om 11:00 UTC
Verwachting geldig van 27 om 12 UTC tot 28 om 18 UTC
Wind 15 kt uit het westnoordwesten
Zicht 10 km of meer
geen wolken onder 1500 m en geen cumulonimbus
Wijzigt naar
van 27 om 18 UTC tot 27 om 20 UTC
Wind 8 kt uit het noorden

TAF: OEJN 271100Z 2712/2818 29015KT CAVOK BECMG 2718/2720 36008KT

Waarnemingen en weersverwachtingen van meer dan 4000 vliegvelden (METAR en TAF).

De beschikbare stations zijn de gele en rode punten op de kaart.

Ga met uw muis naar het station om de naam te zien.

Klik dan om waarnemingen en weersverwachtingen te zien.

kaart wijzigen: klik op de groene knoppen met een zwart kruis om in te zoomen, op de groene knop met een streepje om uit te zoomen of op de groene pijlen voor aangrenzende kaarten.


METAR-TAF: